sensor_id;sensor_type;location;lat;lon;timestamp;pressure;altitude;pressure_sealevel;temperature;humidity
63321;BME280;49449;48.800;9.534;2023-08-20T00:02:18;98872.38;;;23.97;41.89
63321;BME280;49449;48.800;9.534;2023-08-20T00:04:52;98876.16;;;23.96;41.70
63321;BME280;49449;48.800;9.534;2023-08-20T00:07:23;98876.25;;;23.91;41.90
63321;BME280;49449;48.800;9.534;2023-08-20T00:09:51;98878.94;;;23.91;41.91
63321;BME280;49449;48.800;9.534;2023-08-20T00:12:19;98872.50;;;23.92;41.98
63321;BME280;49449;48.800;9.534;2023-08-20T00:14:55;98873.38;;;23.88;42.02
63321;BME280;49449;48.800;9.534;2023-08-20T00:17:25;98877.63;;;23.80;41.95
63321;BME280;49449;48.800;9.534;2023-08-20T00:19:57;98875.03;;;23.75;42.33
63321;BME280;49449;48.800;9.534;2023-08-20T00:22:26;98868.16;;;23.69;42.14
63321;BME280;49449;48.800;9.534;2023-08-20T00:24:54;98871.09;;;23.58;42.56
63321;BME280;49449;48.800;9.534;2023-08-20T00:27:22;98867.75;;;23.53;42.69
63321;BME280;49449;48.800;9.534;2023-08-20T00:29:50;98867.13;;;23.56;42.93
63321;BME280;49449;48.800;9.534;2023-08-20T00:32:18;98867.13;;;23.56;43.02
63321;BME280;49449;48.800;9.534;2023-08-20T00:34:46;98878.03;;;23.51;43.11
63321;BME280;49449;48.800;9.534;2023-08-20T00:37:15;98880.25;;;23.49;43.26
63321;BME280;49449;48.800;9.534;2023-08-20T00:39:43;98885.66;;;23.49;43.26
63321;BME280;49449;48.800;9.534;2023-08-20T00:42:11;98890.13;;;23.53;43.02
63321;BME280;49449;48.800;9.534;2023-08-20T00:44:40;98880.91;;;23.54;43.15
63321;BME280;49449;48.800;9.534;2023-08-20T00:47:11;98888.34;;;23.49;42.89
63321;BME280;49449;48.800;9.534;2023-08-20T00:49:40;98888.63;;;23.47;42.72
63321;BME280;49449;48.800;9.534;2023-08-20T00:52:09;98889.94;;;23.50;42.61
63321;BME280;49449;48.800;9.534;2023-08-20T00:54:40;98891.53;;;23.51;42.82
63321;BME280;49449;48.800;9.534;2023-08-20T00:57:08;98890.84;;;23.45;42.99
63321;BME280;49449;48.800;9.534;2023-08-20T00:59:36;98897.84;;;23.46;42.79
63321;BME280;49449;48.800;9.534;2023-08-20T01:02:04;98894.94;;;23.42;43.11
63321;BME280;49449;48.800;9.534;2023-08-20T01:04:33;98893.06;;;23.43;42.71
63321;BME280;49449;48.800;9.534;2023-08-20T01:07:06;98888.75;;;23.42;42.96
63321;BME280;49449;48.800;9.534;2023-08-20T01:09:46;98892.25;;;23.42;43.21
63321;BME280;49449;48.800;9.534;2023-08-20T01:12:17;98903.66;;;23.39;43.13
63321;BME280;49449;48.800;9.534;2023-08-20T01:14:45;98901.75;;;23.40;42.99
63321;BME280;49449;48.800;9.534;2023-08-20T01:17:13;98896.16;;;23.36;42.73
63321;BME280;49449;48.800;9.534;2023-08-20T01:19:41;98898.38;;;23.34;42.60
63321;BME280;49449;48.800;9.534;2023-08-20T01:22:35;98903.75;;;23.34;42.76
63321;BME280;49449;48.800;9.534;2023-08-20T01:25:17;98903.25;;;23.32;43.41
63321;BME280;49449;48.800;9.534;2023-08-20T01:27:54;98906.06;;;23.27;42.90
63321;BME280;49449;48.800;9.534;2023-08-20T01:30:27;98910.81;;;23.30;43.10
63321;BME280;49449;48.800;9.534;2023-08-20T01:32:56;98914.44;;;23.25;43.38
63321;BME280;49449;48.800;9.534;2023-08-20T01:35:25;98910.56;;;23.18;43.68
63321;BME280;49449;48.800;9.534;2023-08-20T01:37:52;98915.06;;;23.09;43.47
63321;BME280;49449;48.800;9.534;2023-08-20T01:40:20;98911.69;;;23.03;43.99
63321;BME280;49449;48.800;9.534;2023-08-20T01:42:48;98911.19;;;23.01;43.82
63321;BME280;49449;48.800;9.534;2023-08-20T01:45:16;98914.66;;;23.01;43.63
63321;BME280;49449;48.800;9.534;2023-08-20T01:47:46;98917.06;;;22.89;44.43
63321;BME280;49449;48.800;9.534;2023-08-20T01:50:13;98915.91;;;22.81;44.59
63321;BME280;49449;48.800;9.534;2023-08-20T01:52:41;98918.00;;;22.84;44.29
63321;BME280;49449;48.800;9.534;2023-08-20T01:55:09;98922.16;;;22.77;44.50
63321;BME280;49449;48.800;9.534;2023-08-20T01:57:37;98912.28;;;22.72;44.92
63321;BME280;49449;48.800;9.534;2023-08-20T02:00:06;98915.66;;;22.64;45.16
63321;BME280;49449;48.800;9.534;2023-08-20T02:02:35;98912.78;;;22.60;45.07
63321;BME280;49449;48.800;9.534;2023-08-20T02:05:04;98908.19;;;22.61;45.07
63321;BME280;49449;48.800;9.534;2023-08-20T02:07:32;98910.09;;;22.60;44.64
63321;BME280;49449;48.800;9.534;2023-08-20T02:10:00;98907.38;;;22.60;44.59
63321;BME280;49449;48.800;9.534;2023-08-20T02:12:28;98907.69;;;22.59;44.70
63321;BME280;49449;48.800;9.534;2023-08-20T02:14:56;98908.19;;;22.61;44.88
63321;BME280;49449;48.800;9.534;2023-08-20T02:17:24;98905.97;;;22.63;44.60
63321;BME280;49449;48.800;9.534;2023-08-20T02:19:52;98906.19;;;22.66;44.51
63321;BME280;49449;48.800;9.534;2023-08-20T02:22:21;98905.00;;;22.73;44.67
63321;BME280;49449;48.800;9.534;2023-08-20T02:24:49;98908.47;;;22.73;44.50
63321;BME280;49449;48.800;9.534;2023-08-20T02:27:17;98909.00;;;22.75;44.20
63321;BME280;49449;48.800;9.534;2023-08-20T02:29:44;98910.88;;;22.75;44.40
63321;BME280;49449;48.800;9.534;2023-08-20T02:32:13;98916.00;;;22.76;43.93
63321;BME280;49449;48.800;9.534;2023-08-20T02:34:40;98921.38;;;22.76;44.13
63321;BME280;49449;48.800;9.534;2023-08-20T02:37:08;98916.25;;;22.75;44.11
63321;BME280;49449;48.800;9.534;2023-08-20T02:39:37;98922.72;;;22.74;44.20
63321;BME280;49449;48.800;9.534;2023-08-20T02:42:05;98918.69;;;22.76;43.91
63321;BME280;49449;48.800;9.534;2023-08-20T02:44:33;98924.34;;;22.75;43.91
63321;BME280;49449;48.800;9.534;2023-08-20T02:47:01;98925.97;;;22.76;44.07
63321;BME280;49449;48.800;9.534;2023-08-20T02:49:29;98926.25;;;22.74;44.04
63321;BME280;49449;48.800;9.534;2023-08-20T02:51:56;98927.03;;;22.75;43.59
63321;BME280;49449;48.800;9.534;2023-08-20T02:54:24;98925.75;;;22.72;43.73
63321;BME280;49449;48.800;9.534;2023-08-20T02:56:54;98919.25;;;22.73;43.88
63321;BME280;49449;48.800;9.534;2023-08-20T02:59:22;98913.47;;;22.66;43.66
63321;BME280;49449;48.800;9.534;2023-08-20T03:01:50;98913.47;;;22.66;43.64
63321;BME280;49449;48.800;9.534;2023-08-20T03:04:17;98916.44;;;22.64;43.73
63321;BME280;49449;48.800;9.534;2023-08-20T03:06:45;98908.38;;;22.64;43.67
63321;BME280;49449;48.800;9.534;2023-08-20T03:09:13;98908.88;;;22.66;43.50
63321;BME280;49449;48.800;9.534;2023-08-20T03:11:41;98907.00;;;22.67;43.84
63321;BME280;49449;48.800;9.534;2023-08-20T03:14:11;98905.69;;;22.64;43.59
63321;BME280;49449;48.800;9.534;2023-08-20T03:16:38;98903.59;;;22.61;43.81
63321;BME280;49449;48.800;9.534;2023-08-20T03:19:06;98902.09;;;22.55;43.75
63321;BME280;49449;48.800;9.534;2023-08-20T03:21:34;98898.41;;;22.51;43.86
63321;BME280;49449;48.800;9.534;2023-08-20T03:24:03;98897.59;;;22.50;43.69
63321;BME280;49449;48.800;9.534;2023-08-20T03:26:31;98900.00;;;22.52;43.54
63321;BME280;49449;48.800;9.534;2023-08-20T03:28:58;98892.84;;;22.47;43.71
63321;BME280;49449;48.800;9.534;2023-08-20T03:31:28;98897.41;;;22.47;43.91
63321;BME280;49449;48.800;9.534;2023-08-20T03:33:55;98891.72;;;22.48;43.83
63321;BME280;49449;48.800;9.534;2023-08-20T03:36:23;98895.22;;;22.49;43.78
63321;BME280;49449;48.800;9.534;2023-08-20T03:38:56;98886.63;;;22.47;43.92
63321;BME280;49449;48.800;9.534;2023-08-20T03:41:24;98899.59;;;22.45;43.88
63321;BME280;49449;48.800;9.534;2023-08-20T03:43:52;98896.41;;;22.43;43.93
63321;BME280;49449;48.800;9.534;2023-08-20T03:46:19;98901.00;;;22.42;43.80
63321;BME280;49449;48.800;9.534;2023-08-20T03:48:48;98902.88;;;22.42;43.90
63321;BME280;49449;48.800;9.534;2023-08-20T03:51:16;98904.56;;;22.38;44.14
63321;BME280;49449;48.800;9.534;2023-08-20T03:53:44;98897.63;;;22.37;43.89
63321;BME280;49449;48.800;9.534;2023-08-20T03:56:12;98905.47;;;22.33;44.01
63321;BME280;49449;48.800;9.534;2023-08-20T03:58:40;98907.16;;;22.29;44.05
63321;BME280;49449;48.800;9.534;2023-08-20T04:01:08;98912.84;;;22.27;44.14
63321;BME280;49449;48.800;9.534;2023-08-20T04:03:35;98912.84;;;22.27;44.24
63321;BME280;49449;48.800;9.534;2023-08-20T04:06:05;98925.50;;;22.27;44.21
63321;BME280;49449;48.800;9.534;2023-08-20T04:08:33;98928.19;;;22.27;44.03
63321;BME280;49449;48.800;9.534;2023-08-20T04:11:01;98935.25;;;22.23;44.09
63321;BME280;49449;48.800;9.534;2023-08-20T04:13:30;98933.75;;;22.17;44.13
63321;BME280;49449;48.800;9.534;2023-08-20T04:15:58;98925.97;;;22.15;44.05
63321;BME280;49449;48.800;9.534;2023-08-20T04:18:26;98924.59;;;22.18;43.88
63321;BME280;49449;48.800;9.534;2023-08-20T04:20:54;98915.19;;;22.15;44.00
63321;BME280;49449;48.800;9.534;2023-08-20T04:23:23;98916.88;;;22.11;43.97
63321;BME280;49449;48.800;9.534;2023-08-20T04:25:51;98908.38;;;22.04;44.25
63321;BME280;49449;48.800;9.534;2023-08-20T04:28:19;98904.91;;;22.03;44.29
63321;BME280;49449;48.800;9.534;2023-08-20T04:30:46;98917.44;;;22.08;44.18
63321;BME280;49449;48.800;9.534;2023-08-20T04:33:15;98913.66;;;22.09;43.92
63321;BME280;49449;48.800;9.534;2023-08-20T04:35:43;98912.34;;;22.06;44.21
63321;BME280;49449;48.800;9.534;2023-08-20T04:38:11;98913.75;;;22.04;44.23
63321;BME280;49449;48.800;9.534;2023-08-20T04:40:40;98918.34;;;22.03;44.19
63321;BME280;49449;48.800;9.534;2023-08-20T04:43:08;98935.28;;;22.04;43.79
63321;BME280;49449;48.800;9.534;2023-08-20T04:45:36;98936.34;;;22.03;44.18
63321;BME280;49449;48.800;9.534;2023-08-20T04:48:04;98936.34;;;22.03;43.98
63321;BME280;49449;48.800;9.534;2023-08-20T04:50:32;98936.56;;;22.06;44.04
63321;BME280;49449;48.800;9.534;2023-08-20T04:53:00;98939.13;;;21.98;44.06
63321;BME280;49449;48.800;9.534;2023-08-20T04:55:28;98932.75;;;21.93;44.26
63321;BME280;49449;48.800;9.534;2023-08-20T04:57:58;98929.97;;;21.99;44.24
63321;BME280;49449;48.800;9.534;2023-08-20T05:00:25;98929.41;;;22.02;44.23
63321;BME280;49449;48.800;9.534;2023-08-20T05:02:53;98916.44;;;22.04;43.95
63321;BME280;49449;48.800;9.534;2023-08-20T05:05:22;98921.75;;;22.09;44.19
63321;BME280;49449;48.800;9.534;2023-08-20T05:07:50;98924.34;;;22.14;44.22
63321;BME280;49449;48.800;9.534;2023-08-20T05:10:18;98923.19;;;22.20;44.14
63321;BME280;49449;48.800;9.534;2023-08-20T05:12:46;98926.91;;;22.24;44.08
63321;BME280;49449;48.800;9.534;2023-08-20T05:15:16;98935.69;;;22.30;43.85
63321;BME280;49449;48.800;9.534;2023-08-20T05:17:43;98936.88;;;22.38;43.74
63321;BME280;49449;48.800;9.534;2023-08-20T05:20:11;98937.28;;;22.45;43.53
63321;BME280;49449;48.800;9.534;2023-08-20T05:22:40;98940.09;;;22.54;43.70
63321;BME280;49449;48.800;9.534;2023-08-20T05:25:11;98941.59;;;22.60;43.03
63321;BME280;49449;48.800;9.534;2023-08-20T05:27:39;98947.09;;;22.68;42.89
63321;BME280;49449;48.800;9.534;2023-08-20T05:30:08;98950.22;;;22.76;42.82
63321;BME280;49449;48.800;9.534;2023-08-20T05:32:37;98944.72;;;22.81;43.10
63321;BME280;49449;48.800;9.534;2023-08-20T05:35:06;98946.72;;;22.89;42.67
63321;BME280;49449;48.800;9.534;2023-08-20T05:37:34;98959.97;;;22.99;42.67
63321;BME280;49449;48.800;9.534;2023-08-20T05:40:01;98957.38;;;23.08;42.39
63321;BME280;49449;48.800;9.534;2023-08-20T05:42:29;98959.38;;;23.16;42.35
63321;BME280;49449;48.800;9.534;2023-08-20T05:44:57;98959.13;;;23.27;42.30
63321;BME280;49449;48.800;9.534;2023-08-20T05:47:25;98960.88;;;23.36;42.28
63321;BME280;49449;48.800;9.534;2023-08-20T05:49:55;98954.47;;;23.46;42.08
63321;BME280;49449;48.800;9.534;2023-08-20T05:52:22;98954.22;;;23.56;41.53
63321;BME280;49449;48.800;9.534;2023-08-20T05:54:50;98952.00;;;23.58;41.64
63321;BME280;49449;48.800;9.534;2023-08-20T05:57:18;98942.41;;;23.66;41.36
63321;BME280;49449;48.800;9.534;2023-08-20T05:59:46;98935.16;;;23.75;41.13
63321;BME280;49449;48.800;9.534;2023-08-20T06:02:15;98932.84;;;23.83;41.10
63321;BME280;49449;48.800;9.534;2023-08-20T06:04:44;98941.59;;;23.88;41.42
63321;BME280;49449;48.800;9.534;2023-08-20T06:07:13;98947.34;;;23.87;40.96
63321;BME280;49449;48.800;9.534;2023-08-20T06:09:41;98957.41;;;23.95;41.09
63321;BME280;49449;48.800;9.534;2023-08-20T06:12:09;98953.50;;;23.87;41.00
63321;BME280;49449;48.800;9.534;2023-08-20T06:14:37;98943.13;;;23.94;41.23
63321;BME280;49449;48.800;9.534;2023-08-20T06:17:04;98949.78;;;23.97;41.09
63321;BME280;49449;48.800;9.534;2023-08-20T06:19:32;98959.97;;;24.00;41.24
63321;BME280;49449;48.800;9.534;2023-08-20T06:22:01;98975.50;;;23.94;41.44
63321;BME280;49449;48.800;9.534;2023-08-20T06:24:30;98987.94;;;24.04;41.58
63321;BME280;49449;48.800;9.534;2023-08-20T06:27:00;98990.25;;;24.19;41.01
63321;BME280;49449;48.800;9.534;2023-08-20T06:29:28;98981.91;;;24.30;40.64
63321;BME280;49449;48.800;9.534;2023-08-20T06:31:56;98973.75;;;24.44;40.41
63321;BME280;49449;48.800;9.534;2023-08-20T06:34:23;98972.44;;;24.41;40.32
63321;BME280;49449;48.800;9.534;2023-08-20T06:36:52;98963.00;;;24.52;40.66
63321;BME280;49449;48.800;9.534;2023-08-20T06:39:20;98962.75;;;24.63;40.68
63321;BME280;49449;48.800;9.534;2023-08-20T06:41:49;98965.09;;;24.64;40.14
63321;BME280;49449;48.800;9.534;2023-08-20T06:44:17;98972.63;;;24.76;40.11
63321;BME280;49449;48.800;9.534;2023-08-20T06:46:44;98966.66;;;24.88;40.13
63321;BME280;49449;48.800;9.534;2023-08-20T06:49:12;98973.81;;;25.01;39.99
63321;BME280;49449;48.800;9.534;2023-08-20T06:51:40;98979.28;;;25.10;40.28
63321;BME280;49449;48.800;9.534;2023-08-20T06:54:08;98977.41;;;25.19;39.66
63321;BME280;49449;48.800;9.534;2023-08-20T06:56:36;98985.53;;;25.37;39.70
63321;BME280;49449;48.800;9.534;2023-08-20T06:59:05;98981.59;;;25.52;39.16
63321;BME280;49449;48.800;9.534;2023-08-20T07:01:33;98979.88;;;25.64;39.13
63321;BME280;49449;48.800;9.534;2023-08-20T07:04:01;98984.19;;;25.83;39.08
63321;BME280;49449;48.800;9.534;2023-08-20T07:06:30;98982.88;;;25.98;38.37
63321;BME280;49449;48.800;9.534;2023-08-20T07:08:57;98985.59;;;26.06;38.59
63321;BME280;49449;48.800;9.534;2023-08-20T07:11:25;98987.81;;;26.04;38.42
63321;BME280;49449;48.800;9.534;2023-08-20T07:13:53;98986.88;;;26.09;38.45
63321;BME280;49449;48.800;9.534;2023-08-20T07:16:22;98983.50;;;26.12;38.46
63321;BME280;49449;48.800;9.534;2023-08-20T07:18:50;98977.31;;;26.20;38.11
63321;BME280;49449;48.800;9.534;2023-08-20T07:21:19;98982.88;;;26.24;37.86
63321;BME280;49449;48.800;9.534;2023-08-20T07:23:47;98981.72;;;26.34;37.98
63321;BME280;49449;48.800;9.534;2023-08-20T07:26:15;98978.50;;;26.49;37.95
63321;BME280;49449;48.800;9.534;2023-08-20T07:28:43;98987.06;;;26.60;38.17
63321;BME280;49449;48.800;9.534;2023-08-20T07:31:35;98983.72;;;26.72;37.74
63321;BME280;49449;48.800;9.534;2023-08-20T07:34:03;98987.44;;;26.88;36.99
63321;BME280;49449;48.800;9.534;2023-08-20T07:36:31;98987.88;;;26.99;37.41
63321;BME280;49449;48.800;9.534;2023-08-20T07:39:00;99002.38;;;27.03;37.15
63321;BME280;49449;48.800;9.534;2023-08-20T07:41:28;98995.81;;;27.04;37.28
63321;BME280;49449;48.800;9.534;2023-08-20T07:43:56;98993.53;;;27.15;36.86
63321;BME280;49449;48.800;9.534;2023-08-20T07:46:23;98996.97;;;27.33;36.85
63321;BME280;49449;48.800;9.534;2023-08-20T07:48:53;98999.44;;;27.47;36.71
63321;BME280;49449;48.800;9.534;2023-08-20T07:51:21;98996.88;;;27.50;36.14
63321;BME280;49449;48.800;9.534;2023-08-20T07:53:48;98998.09;;;27.53;36.67
63321;BME280;49449;48.800;9.534;2023-08-20T07:56:16;99002.94;;;27.68;36.37
63321;BME280;49449;48.800;9.534;2023-08-20T07:58:44;98999.63;;;27.84;36.76
63321;BME280;49449;48.800;9.534;2023-08-20T08:01:12;99005.94;;;27.97;35.94
63321;BME280;49449;48.800;9.534;2023-08-20T08:03:40;99014.09;;;27.97;36.08
63321;BME280;49449;48.800;9.534;2023-08-20T08:06:09;99012.22;;;27.88;36.08
63321;BME280;49449;48.800;9.534;2023-08-20T08:08:42;99013.53;;;28.03;36.54
63321;BME280;49449;48.800;9.534;2023-08-20T08:11:10;99013.06;;;28.22;36.27
63321;BME280;49449;48.800;9.534;2023-08-20T08:13:38;99013.81;;;28.44;35.58
63321;BME280;49449;48.800;9.534;2023-08-20T08:16:06;99017.00;;;28.58;34.99
63321;BME280;49449;48.800;9.534;2023-08-20T08:18:34;99015.41;;;28.69;35.13
63321;BME280;49449;48.800;9.534;2023-08-20T08:21:01;99024.63;;;28.77;34.79
63321;BME280;49449;48.800;9.534;2023-08-20T08:23:31;99020.47;;;28.92;35.02
63321;BME280;49449;48.800;9.534;2023-08-20T08:25:58;99018.41;;;29.01;34.92
63321;BME280;49449;48.800;9.534;2023-08-20T08:28:26;99019.44;;;29.21;34.27
63321;BME280;49449;48.800;9.534;2023-08-20T08:30:54;99018.09;;;29.28;33.96
63321;BME280;49449;48.800;9.534;2023-08-20T08:33:22;99012.97;;;29.38;33.57
63321;BME280;49449;48.800;9.534;2023-08-20T08:35:50;99013.19;;;29.46;33.45
63321;BME280;49449;48.800;9.534;2023-08-20T08:38:18;99010.25;;;29.26;33.84
63321;BME280;49449;48.800;9.534;2023-08-20T08:40:48;99005.38;;;29.32;34.01
63321;BME280;49449;48.800;9.534;2023-08-20T08:43:18;99013.28;;;29.49;33.82
63321;BME280;49449;48.800;9.534;2023-08-20T08:45:46;99010.28;;;29.67;34.30
63321;BME280;49449;48.800;9.534;2023-08-20T08:48:15;99005.38;;;29.85;34.13
63321;BME280;49449;48.800;9.534;2023-08-20T08:50:43;99010.53;;;30.02;33.26
63321;BME280;49449;48.800;9.534;2023-08-20T08:53:12;99001.63;;;30.17;32.70
63321;BME280;49449;48.800;9.534;2023-08-20T08:55:40;99008.59;;;30.31;32.81
63321;BME280;49449;48.800;9.534;2023-08-20T08:58:10;99005.44;;;30.45;32.83
63321;BME280;49449;48.800;9.534;2023-08-20T09:00:38;99009.94;;;30.53;31.99
63321;BME280;49449;48.800;9.534;2023-08-20T09:03:06;99006.69;;;30.63;31.85
63321;BME280;49449;48.800;9.534;2023-08-20T09:05:45;99011.56;;;30.70;31.62
63321;BME280;49449;48.800;9.534;2023-08-20T09:08:19;99009.44;;;30.79;31.31
63321;BME280;49449;48.800;9.534;2023-08-20T09:10:50;99007.59;;;30.67;31.94
63321;BME280;49449;48.800;9.534;2023-08-20T09:13:19;99013.63;;;30.61;32.12
63321;BME280;49449;48.800;9.534;2023-08-20T09:15:50;99013.03;;;30.83;32.06
63321;BME280;49449;48.800;9.534;2023-08-20T09:18:19;99009.84;;;30.97;31.93
63321;BME280;49449;48.800;9.534;2023-08-20T09:20:47;99001.47;;;31.06;31.52
63321;BME280;49449;48.800;9.534;2023-08-20T09:23:16;99008.00;;;31.17;31.25
63321;BME280;49449;48.800;9.534;2023-08-20T09:25:44;99001.03;;;31.20;31.03
63321;BME280;49449;48.800;9.534;2023-08-20T09:28:12;99002.41;;;31.29;30.51
63321;BME280;49449;48.800;9.534;2023-08-20T09:30:54;99006.31;;;31.28;30.92
63321;BME280;49449;48.800;9.534;2023-08-20T09:33:22;99007.16;;;31.33;30.86
63321;BME280;49449;48.800;9.534;2023-08-20T09:35:50;99003.72;;;31.36;30.67
63321;BME280;49449;48.800;9.534;2023-08-20T09:38:21;99008.00;;;31.17;30.25
63321;BME280;49449;48.800;9.534;2023-08-20T09:40:51;99013.38;;;31.13;30.28
63321;BME280;49449;48.800;9.534;2023-08-20T09:43:19;99007.72;;;31.06;30.71
63321;BME280;49449;48.800;9.534;2023-08-20T09:45:49;99005.69;;;31.19;31.20
63321;BME280;49449;48.800;9.534;2023-08-20T09:48:19;99008.59;;;31.26;30.44
63321;BME280;49449;48.800;9.534;2023-08-20T09:50:48;99008.97;;;31.25;29.95
63321;BME280;49449;48.800;9.534;2023-08-20T09:53:20;99008.22;;;31.28;30.41
63321;BME280;49449;48.800;9.534;2023-08-20T09:55:50;99007.63;;;31.54;31.05
63321;BME280;49449;48.800;9.534;2023-08-20T09:58:20;98995.03;;;31.65;30.00
63321;BME280;49449;48.800;9.534;2023-08-20T10:00:53;98993.06;;;31.85;29.80
63321;BME280;49449;48.800;9.534;2023-08-20T10:03:21;98995.22;;;31.96;29.91
63321;BME280;49449;48.800;9.534;2023-08-20T10:05:50;98997.88;;;32.12;29.39
63321;BME280;49449;48.800;9.534;2023-08-20T10:08:18;98992.38;;;32.31;28.93
63321;BME280;49449;48.800;9.534;2023-08-20T10:10:46;98991.03;;;32.44;28.10
63321;BME280;49449;48.800;9.534;2023-08-20T10:13:15;98986.63;;;32.59;29.04
63321;BME280;49449;48.800;9.534;2023-08-20T10:15:43;98990.25;;;32.67;28.70
63321;BME280;49449;48.800;9.534;2023-08-20T10:18:14;98991.22;;;32.78;28.20
63321;BME280;49449;48.800;9.534;2023-08-20T10:20:42;98986.06;;;32.73;27.76
63321;BME280;49449;48.800;9.534;2023-08-20T10:23:12;98987.72;;;32.81;28.20
63321;BME280;49449;48.800;9.534;2023-08-20T10:25:41;98985.63;;;32.94;27.72
63321;BME280;49449;48.800;9.534;2023-08-20T10:28:12;98990.53;;;33.08;27.76
63321;BME280;49449;48.800;9.534;2023-08-20T10:31:05;98986.66;;;33.13;27.01
63321;BME280;49449;48.800;9.534;2023-08-20T10:33:36;98988.38;;;33.25;27.10
63321;BME280;49449;48.800;9.534;2023-08-20T10:36:09;98979.50;;;33.31;27.64
63321;BME280;49449;48.800;9.534;2023-08-20T10:38:37;98975.31;;;33.41;26.84
63321;BME280;49449;48.800;9.534;2023-08-20T10:41:07;98978.16;;;33.48;27.48
63321;BME280;49449;48.800;9.534;2023-08-20T10:43:37;98973.09;;;33.50;26.23
63321;BME280;49449;48.800;9.534;2023-08-20T10:46:07;98968.47;;;33.54;26.51
63321;BME280;49449;48.800;9.534;2023-08-20T10:48:38;98968.88;;;33.56;26.54
63321;BME280;49449;48.800;9.534;2023-08-20T10:51:10;98975.50;;;33.55;26.57
63321;BME280;49449;48.800;9.534;2023-08-20T10:53:40;98973.88;;;33.51;25.75
63321;BME280;49449;48.800;9.534;2023-08-20T10:56:13;98975.41;;;33.48;26.63
63321;BME280;49449;48.800;9.534;2023-08-20T10:58:44;98972.38;;;33.57;26.62
63321;BME280;49449;48.800;9.534;2023-08-20T11:01:16;98977.94;;;33.64;26.54
63321;BME280;49449;48.800;9.534;2023-08-20T11:03:47;98972.94;;;33.70;25.53
63321;BME280;49449;48.800;9.534;2023-08-20T11:06:16;98970.66;;;33.75;25.46
63321;BME280;49449;48.800;9.534;2023-08-20T11:08:44;98964.41;;;33.79;25.69
63321;BME280;49449;48.800;9.534;2023-08-20T11:11:12;98975.31;;;33.75;25.59
63321;BME280;49449;48.800;9.534;2023-08-20T11:13:40;98972.09;;;33.66;25.32
63321;BME280;49449;48.800;9.534;2023-08-20T11:16:09;98963.03;;;33.58;25.40
63321;BME280;49449;48.800;9.534;2023-08-20T11:18:37;98966.78;;;33.46;25.43
63321;BME280;49449;48.800;9.534;2023-08-20T11:21:07;98962.00;;;33.40;25.79
63321;BME280;49449;48.800;9.534;2023-08-20T11:23:35;98957.75;;;33.42;25.97
63321;BME280;49449;48.800;9.534;2023-08-20T11:26:05;98967.53;;;33.43;26.12
63321;BME280;49449;48.800;9.534;2023-08-20T11:28:34;98954.31;;;33.49;26.46
63321;BME280;49449;48.800;9.534;2023-08-20T11:31:01;98963.19;;;33.39;25.73
63321;BME280;49449;48.800;9.534;2023-08-20T11:33:30;98951.06;;;33.40;26.19
63321;BME280;49449;48.800;9.534;2023-08-20T11:35:58;98949.53;;;33.42;26.50
63321;BME280;49449;48.800;9.534;2023-08-20T11:38:27;98947.13;;;33.37;24.44
63321;BME280;49449;48.800;9.534;2023-08-20T11:40:57;98952.44;;;33.26;24.90
63321;BME280;49449;48.800;9.534;2023-08-20T11:43:27;98952.72;;;33.17;25.26
63321;BME280;49449;48.800;9.534;2023-08-20T11:45:55;98945.97;;;33.11;24.70
63321;BME280;49449;48.800;9.534;2023-08-20T11:48:23;98955.22;;;32.99;25.13
63321;BME280;49449;48.800;9.534;2023-08-20T11:50:51;98944.94;;;32.93;26.42
63321;BME280;49449;48.800;9.534;2023-08-20T11:53:21;98942.22;;;32.93;25.27
63321;BME280;49449;48.800;9.534;2023-08-20T11:55:50;98939.53;;;32.96;26.13
63321;BME280;49449;48.800;9.534;2023-08-20T11:58:18;98940.03;;;33.06;25.51
63321;BME280;49449;48.800;9.534;2023-08-20T12:00:48;98944.00;;;33.08;26.75
63321;BME280;49449;48.800;9.534;2023-08-20T12:03:18;98934.25;;;33.11;26.70
63321;BME280;49449;48.800;9.534;2023-08-20T12:05:46;98935.63;;;32.97;25.43
63321;BME280;49449;48.800;9.534;2023-08-20T12:08:15;98934.72;;;32.90;25.61
63321;BME280;49449;48.800;9.534;2023-08-20T12:10:44;98934.66;;;32.86;25.47
63321;BME280;49449;48.800;9.534;2023-08-20T12:13:13;98931.16;;;32.86;26.26
63321;BME280;49449;48.800;9.534;2023-08-20T12:15:41;98929.56;;;32.85;26.20
63321;BME280;49449;48.800;9.534;2023-08-20T12:18:09;98922.13;;;32.85;27.04
63321;BME280;49449;48.800;9.534;2023-08-20T12:20:37;98933.06;;;32.85;26.90
63321;BME280;49449;48.800;9.534;2023-08-20T12:23:06;98922.94;;;32.86;26.63
63321;BME280;49449;48.800;9.534;2023-08-20T12:25:35;98928.69;;;32.77;26.49
63321;BME280;49449;48.800;9.534;2023-08-20T12:28:04;98929.09;;;32.79;26.83
63321;BME280;49449;48.800;9.534;2023-08-20T12:30:33;98925.56;;;32.78;26.23
63321;BME280;49449;48.800;9.534;2023-08-20T12:33:03;98920.00;;;32.71;26.08
63321;BME280;49449;48.800;9.534;2023-08-20T12:35:32;98922.78;;;32.75;26.73
63321;BME280;49449;48.800;9.534;2023-08-20T12:38:00;98920.78;;;32.72;26.57
63321;BME280;49449;48.800;9.534;2023-08-20T12:40:28;98912.53;;;32.68;26.63
63321;BME280;49449;48.800;9.534;2023-08-20T12:42:56;98910.22;;;32.70;25.64
63321;BME280;49449;48.800;9.534;2023-08-20T12:45:24;98909.47;;;32.73;25.82
63321;BME280;49449;48.800;9.534;2023-08-20T12:47:53;98901.31;;;32.77;26.29
63321;BME280;49449;48.800;9.534;2023-08-20T12:50:21;98897.47;;;32.81;26.85
63321;BME280;49449;48.800;9.534;2023-08-20T12:52:52;98897.38;;;32.74;26.60
63321;BME280;49449;48.800;9.534;2023-08-20T12:55:20;98892.72;;;32.75;25.58
63321;BME280;49449;48.800;9.534;2023-08-20T12:57:55;98895.44;;;32.75;27.10
63321;BME280;49449;48.800;9.534;2023-08-20T13:00:24;98897.38;;;32.74;26.43
63321;BME280;49449;48.800;9.534;2023-08-20T13:02:54;98891.78;;;32.67;26.74
63321;BME280;49449;48.800;9.534;2023-08-20T13:05:23;98889.91;;;32.71;25.65
63321;BME280;49449;48.800;9.534;2023-08-20T13:07:52;98893.66;;;32.59;26.55
63321;BME280;49449;48.800;9.534;2023-08-20T13:10:22;98894.75;;;32.55;26.01